sensor_id;sensor_type;location;lat;lon;timestamp;temperature;humidity
10883;DHT22;5494;51.796;10.952;2022-09-25T00:01:33;12.50;99.90
10883;DHT22;5494;51.796;10.952;2022-09-25T00:04:01;12.50;99.90
10883;DHT22;5494;51.796;10.952;2022-09-25T00:06:31;12.50;99.90
10883;DHT22;5494;51.796;10.952;2022-09-25T00:08:59;12.50;99.90
10883;DHT22;5494;51.796;10.952;2022-09-25T00:11:30;12.50;99.90
10883;DHT22;5494;51.796;10.952;2022-09-25T00:14:02;12.60;99.90
10883;DHT22;5494;51.796;10.952;2022-09-25T00:16:31;12.60;99.90
10883;DHT22;5494;51.796;10.952;2022-09-25T00:18:59;12.60;99.90
10883;DHT22;5494;51.796;10.952;2022-09-25T00:21:46;12.60;99.90
10883;DHT22;5494;51.796;10.952;2022-09-25T00:24:18;12.70;99.90
10883;DHT22;5494;51.796;10.952;2022-09-25T00:26:48;12.70;99.90
10883;DHT22;5494;51.796;10.952;2022-09-25T00:29:19;12.70;99.90
10883;DHT22;5494;51.796;10.952;2022-09-25T00:31:47;12.70;99.90
10883;DHT22;5494;51.796;10.952;2022-09-25T00:34:16;12.70;99.90
10883;DHT22;5494;51.796;10.952;2022-09-25T00:36:44;12.80;99.90
10883;DHT22;5494;51.796;10.952;2022-09-25T00:39:13;12.80;99.90
10883;DHT22;5494;51.796;10.952;2022-09-25T00:41:41;12.80;99.90
10883;DHT22;5494;51.796;10.952;2022-09-25T00:44:45;12.80;99.90
10883;DHT22;5494;51.796;10.952;2022-09-25T00:47:27;12.90;99.90
10883;DHT22;5494;51.796;10.952;2022-09-25T00:50:24;12.80;99.90
10883;DHT22;5494;51.796;10.952;2022-09-25T00:53:02;12.70;99.90
10883;DHT22;5494;51.796;10.952;2022-09-25T00:55:35;12.70;99.90
10883;DHT22;5494;51.796;10.952;2022-09-25T00:58:05;12.70;99.90
10883;DHT22;5494;51.796;10.952;2022-09-25T01:00:36;12.80;99.90
10883;DHT22;5494;51.796;10.952;2022-09-25T01:03:06;12.70;99.90
10883;DHT22;5494;51.796;10.952;2022-09-25T01:05:37;12.70;99.90
10883;DHT22;5494;51.796;10.952;2022-09-25T01:08:11;12.70;99.90
10883;DHT22;5494;51.796;10.952;2022-09-25T01:10:42;12.70;99.90
10883;DHT22;5494;51.796;10.952;2022-09-25T01:13:12;12.70;99.90
10883;DHT22;5494;51.796;10.952;2022-09-25T01:15:54;12.60;99.90
10883;DHT22;5494;51.796;10.952;2022-09-25T01:18:36;12.50;99.90
10883;DHT22;5494;51.796;10.952;2022-09-25T01:21:21;12.50;99.90
10883;DHT22;5494;51.796;10.952;2022-09-25T01:27:32;12.50;99.90
10883;DHT22;5494;51.796;10.952;2022-09-25T01:30:11;12.40;99.90
10883;DHT22;5494;51.796;10.952;2022-09-25T01:32:54;12.50;99.90
10883;DHT22;5494;51.796;10.952;2022-09-25T01:35:34;12.50;99.90
10883;DHT22;5494;51.796;10.952;2022-09-25T01:38:15;12.60;99.90
10883;DHT22;5494;51.796;10.952;2022-09-25T01:40:56;12.60;99.90
10883;DHT22;5494;51.796;10.952;2022-09-25T01:43:34;12.60;99.90
10883;DHT22;5494;51.796;10.952;2022-09-25T01:46:11;12.60;99.90
10883;DHT22;5494;51.796;10.952;2022-09-25T01:48:44;12.50;99.90
10883;DHT22;5494;51.796;10.952;2022-09-25T01:51:21;12.50;99.90
10883;DHT22;5494;51.796;10.952;2022-09-25T01:53:58;12.40;99.90
10883;DHT22;5494;51.796;10.952;2022-09-25T01:56:33;12.40;99.90
10883;DHT22;5494;51.796;10.952;2022-09-25T01:59:09;12.30;99.90
10883;DHT22;5494;51.796;10.952;2022-09-25T02:01:45;12.30;99.90
10883;DHT22;5494;51.796;10.952;2022-09-25T02:04:16;12.30;99.90
10883;DHT22;5494;51.796;10.952;2022-09-25T02:06:50;12.30;99.90
10883;DHT22;5494;51.796;10.952;2022-09-25T02:09:29;12.20;99.90
10883;DHT22;5494;51.796;10.952;2022-09-25T02:12:06;12.20;99.90
10883;DHT22;5494;51.796;10.952;2022-09-25T02:14:42;12.20;99.90
10883;DHT22;5494;51.796;10.952;2022-09-25T02:17:21;12.20;99.90
10883;DHT22;5494;51.796;10.952;2022-09-25T02:20:11;12.10;99.90
10883;DHT22;5494;51.796;10.952;2022-09-25T02:23:02;12.10;99.90
10883;DHT22;5494;51.796;10.952;2022-09-25T02:25:38;12.00;99.90
10883;DHT22;5494;51.796;10.952;2022-09-25T02:28:10;11.90;99.90
10883;DHT22;5494;51.796;10.952;2022-09-25T02:30:38;11.80;99.90
10883;DHT22;5494;51.796;10.952;2022-09-25T02:33:09;11.70;99.90
10883;DHT22;5494;51.796;10.952;2022-09-25T02:35:37;11.60;99.90
10883;DHT22;5494;51.796;10.952;2022-09-25T02:38:07;11.60;99.90
10883;DHT22;5494;51.796;10.952;2022-09-25T02:40:46;11.50;99.90
10883;DHT22;5494;51.796;10.952;2022-09-25T02:43:28;11.40;99.90
10883;DHT22;5494;51.796;10.952;2022-09-25T02:46:12;11.30;99.90
10883;DHT22;5494;51.796;10.952;2022-09-25T02:48:53;11.30;99.90
10883;DHT22;5494;51.796;10.952;2022-09-25T02:51:30;11.20;99.90
10883;DHT22;5494;51.796;10.952;2022-09-25T02:54:09;11.10;99.90
10883;DHT22;5494;51.796;10.952;2022-09-25T02:56:45;11.10;99.90
10883;DHT22;5494;51.796;10.952;2022-09-25T02:59:22;11.00;99.90
10883;DHT22;5494;51.796;10.952;2022-09-25T03:01:56;11.00;99.90
10883;DHT22;5494;51.796;10.952;2022-09-25T03:04:28;11.00;99.90
10883;DHT22;5494;51.796;10.952;2022-09-25T03:06:58;11.00;99.90
10883;DHT22;5494;51.796;10.952;2022-09-25T03:09:28;10.90;99.90
10883;DHT22;5494;51.796;10.952;2022-09-25T03:12:02;10.90;99.90
10883;DHT22;5494;51.796;10.952;2022-09-25T03:14:31;10.90;99.90
10883;DHT22;5494;51.796;10.952;2022-09-25T03:17:01;10.90;99.90
10883;DHT22;5494;51.796;10.952;2022-09-25T03:19:34;10.90;99.90
10883;DHT22;5494;51.796;10.952;2022-09-25T03:22:03;10.80;99.90
10883;DHT22;5494;51.796;10.952;2022-09-25T03:24:32;10.80;99.90
10883;DHT22;5494;51.796;10.952;2022-09-25T03:27:00;10.80;99.90
10883;DHT22;5494;51.796;10.952;2022-09-25T03:29:29;10.80;99.90
10883;DHT22;5494;51.796;10.952;2022-09-25T03:31:57;10.80;99.90
10883;DHT22;5494;51.796;10.952;2022-09-25T03:34:27;10.80;99.90
10883;DHT22;5494;51.796;10.952;2022-09-25T03:36:56;10.80;99.90
10883;DHT22;5494;51.796;10.952;2022-09-25T03:39:25;10.80;99.90
10883;DHT22;5494;51.796;10.952;2022-09-25T03:41:53;10.80;99.90
10883;DHT22;5494;51.796;10.952;2022-09-25T03:44:21;10.80;99.90
10883;DHT22;5494;51.796;10.952;2022-09-25T03:46:54;10.80;99.90
10883;DHT22;5494;51.796;10.952;2022-09-25T03:49:22;10.80;99.90
10883;DHT22;5494;51.796;10.952;2022-09-25T03:51:51;10.80;99.90
10883;DHT22;5494;51.796;10.952;2022-09-25T03:54:20;10.70;99.90
10883;DHT22;5494;51.796;10.952;2022-09-25T03:56:49;10.80;99.90
10883;DHT22;5494;51.796;10.952;2022-09-25T03:59:18;10.80;99.90
10883;DHT22;5494;51.796;10.952;2022-09-25T04:01:46;10.80;99.90
10883;DHT22;5494;51.796;10.952;2022-09-25T04:04:15;10.90;99.90
10883;DHT22;5494;51.796;10.952;2022-09-25T04:06:44;10.90;99.90
10883;DHT22;5494;51.796;10.952;2022-09-25T04:09:12;10.90;99.90
10883;DHT22;5494;51.796;10.952;2022-09-25T04:11:42;10.90;99.90
10883;DHT22;5494;51.796;10.952;2022-09-25T04:14:11;10.90;99.90
10883;DHT22;5494;51.796;10.952;2022-09-25T04:16:40;10.90;99.90
10883;DHT22;5494;51.796;10.952;2022-09-25T04:19:10;10.90;99.90
10883;DHT22;5494;51.796;10.952;2022-09-25T04:21:38;10.90;99.90
10883;DHT22;5494;51.796;10.952;2022-09-25T04:24:07;10.90;99.90
10883;DHT22;5494;51.796;10.952;2022-09-25T04:26:55;10.80;99.90
10883;DHT22;5494;51.796;10.952;2022-09-25T04:29:23;10.80;99.90
10883;DHT22;5494;51.796;10.952;2022-09-25T04:31:52;10.80;99.90
10883;DHT22;5494;51.796;10.952;2022-09-25T04:34:34;10.90;99.90
10883;DHT22;5494;51.796;10.952;2022-09-25T04:37:02;10.80;99.90
10883;DHT22;5494;51.796;10.952;2022-09-25T04:39:31;10.80;99.90
10883;DHT22;5494;51.796;10.952;2022-09-25T04:42:00;10.80;99.90
10883;DHT22;5494;51.796;10.952;2022-09-25T04:44:29;10.80;99.90
10883;DHT22;5494;51.796;10.952;2022-09-25T04:46:57;10.80;99.90
10883;DHT22;5494;51.796;10.952;2022-09-25T04:49:26;10.70;99.90
10883;DHT22;5494;51.796;10.952;2022-09-25T04:51:55;10.60;99.90
10883;DHT22;5494;51.796;10.952;2022-09-25T04:54:23;10.60;99.90
10883;DHT22;5494;51.796;10.952;2022-09-25T04:56:51;10.70;99.90
10883;DHT22;5494;51.796;10.952;2022-09-25T04:59:21;10.60;99.90
10883;DHT22;5494;51.796;10.952;2022-09-25T05:01:50;10.60;99.90
10883;DHT22;5494;51.796;10.952;2022-09-25T05:04:18;10.70;99.90
10883;DHT22;5494;51.796;10.952;2022-09-25T05:06:47;10.80;99.90
10883;DHT22;5494;51.796;10.952;2022-09-25T05:09:17;10.80;99.90
10883;DHT22;5494;51.796;10.952;2022-09-25T05:11:46;10.80;99.90
10883;DHT22;5494;51.796;10.952;2022-09-25T05:14:14;10.80;99.90
10883;DHT22;5494;51.796;10.952;2022-09-25T05:16:46;10.80;99.90
10883;DHT22;5494;51.796;10.952;2022-09-25T05:19:14;10.90;99.90
10883;DHT22;5494;51.796;10.952;2022-09-25T05:21:43;11.00;99.90
10883;DHT22;5494;51.796;10.952;2022-09-25T05:24:11;10.90;99.90
10883;DHT22;5494;51.796;10.952;2022-09-25T05:26:40;11.00;99.90
10883;DHT22;5494;51.796;10.952;2022-09-25T05:29:08;10.90;99.90
10883;DHT22;5494;51.796;10.952;2022-09-25T05:31:37;10.90;99.90
10883;DHT22;5494;51.796;10.952;2022-09-25T05:34:07;11.00;99.90
10883;DHT22;5494;51.796;10.952;2022-09-25T05:36:37;11.00;99.90
10883;DHT22;5494;51.796;10.952;2022-09-25T05:39:05;11.10;99.90
10883;DHT22;5494;51.796;10.952;2022-09-25T05:41:40;11.10;99.90
10883;DHT22;5494;51.796;10.952;2022-09-25T05:44:08;11.10;99.90
10883;DHT22;5494;51.796;10.952;2022-09-25T05:46:37;11.20;99.90
10883;DHT22;5494;51.796;10.952;2022-09-25T05:49:08;11.20;99.90
10883;DHT22;5494;51.796;10.952;2022-09-25T05:51:37;11.30;99.90
10883;DHT22;5494;51.796;10.952;2022-09-25T05:54:05;11.30;99.90
10883;DHT22;5494;51.796;10.952;2022-09-25T05:56:33;11.30;99.90
10883;DHT22;5494;51.796;10.952;2022-09-25T05:59:02;11.30;99.90
10883;DHT22;5494;51.796;10.952;2022-09-25T06:01:30;11.40;99.90
10883;DHT22;5494;51.796;10.952;2022-09-25T06:03:58;11.60;99.90
10883;DHT22;5494;51.796;10.952;2022-09-25T06:06:29;11.80;99.90
10883;DHT22;5494;51.796;10.952;2022-09-25T06:08:58;12.00;99.90
10883;DHT22;5494;51.796;10.952;2022-09-25T06:11:27;12.10;99.90
10883;DHT22;5494;51.796;10.952;2022-09-25T06:13:57;12.20;99.90
10883;DHT22;5494;51.796;10.952;2022-09-25T06:16:26;12.30;99.90
10883;DHT22;5494;51.796;10.952;2022-09-25T06:18:55;12.40;99.90
10883;DHT22;5494;51.796;10.952;2022-09-25T06:21:23;12.40;99.90
10883;DHT22;5494;51.796;10.952;2022-09-25T06:23:53;12.50;99.90
10883;DHT22;5494;51.796;10.952;2022-09-25T06:26:21;12.60;99.90
10883;DHT22;5494;51.796;10.952;2022-09-25T06:28:51;12.70;99.90
10883;DHT22;5494;51.796;10.952;2022-09-25T06:31:20;12.90;99.90
10883;DHT22;5494;51.796;10.952;2022-09-25T06:33:49;13.10;99.90
10883;DHT22;5494;51.796;10.952;2022-09-25T06:36:18;13.30;99.90
10883;DHT22;5494;51.796;10.952;2022-09-25T06:38:47;13.50;99.90
10883;DHT22;5494;51.796;10.952;2022-09-25T06:41:16;13.70;99.90
10883;DHT22;5494;51.796;10.952;2022-09-25T06:43:48;14.00;99.90
10883;DHT22;5494;51.796;10.952;2022-09-25T06:46:17;14.10;99.90
10883;DHT22;5494;51.796;10.952;2022-09-25T06:48:50;14.30;99.90
10883;DHT22;5494;51.796;10.952;2022-09-25T06:51:20;14.40;99.90
10883;DHT22;5494;51.796;10.952;2022-09-25T06:53:51;14.50;99.90
10883;DHT22;5494;51.796;10.952;2022-09-25T06:56:21;14.30;99.90
10883;DHT22;5494;51.796;10.952;2022-09-25T06:58:49;14.10;99.90
10883;DHT22;5494;51.796;10.952;2022-09-25T07:01:18;14.10;99.90
10883;DHT22;5494;51.796;10.952;2022-09-25T07:03:47;14.20;99.90
10883;DHT22;5494;51.796;10.952;2022-09-25T07:06:17;14.40;99.90
10883;DHT22;5494;51.796;10.952;2022-09-25T07:08:47;14.70;99.90
10883;DHT22;5494;51.796;10.952;2022-09-25T07:11:18;15.00;99.90
10883;DHT22;5494;51.796;10.952;2022-09-25T07:13:49;15.20;99.90
10883;DHT22;5494;51.796;10.952;2022-09-25T07:16:22;15.30;99.90
10883;DHT22;5494;51.796;10.952;2022-09-25T07:18:55;15.50;99.90
10883;DHT22;5494;51.796;10.952;2022-09-25T07:21:27;15.60;99.90
10883;DHT22;5494;51.796;10.952;2022-09-25T07:23:58;15.60;99.90
10883;DHT22;5494;51.796;10.952;2022-09-25T07:26:28;15.90;99.90
10883;DHT22;5494;51.796;10.952;2022-09-25T07:29:02;16.30;99.90
10883;DHT22;5494;51.796;10.952;2022-09-25T07:31:34;16.90;99.90
10883;DHT22;5494;51.796;10.952;2022-09-25T07:34:04;17.50;99.90
10883;DHT22;5494;51.796;10.952;2022-09-25T07:36:36;17.80;99.90
10883;DHT22;5494;51.796;10.952;2022-09-25T07:39:05;18.30;99.90
10883;DHT22;5494;51.796;10.952;2022-09-25T07:41:34;18.90;99.90
10883;DHT22;5494;51.796;10.952;2022-09-25T07:44:04;19.10;99.90
10883;DHT22;5494;51.796;10.952;2022-09-25T07:46:53;19.50;99.90
10883;DHT22;5494;51.796;10.952;2022-09-25T07:49:21;19.80;99.90
10883;DHT22;5494;51.796;10.952;2022-09-25T07:51:51;19.90;99.90
10883;DHT22;5494;51.796;10.952;2022-09-25T07:54:19;20.20;99.90
10883;DHT22;5494;51.796;10.952;2022-09-25T07:56:47;20.30;99.90
10883;DHT22;5494;51.796;10.952;2022-09-25T07:59:18;20.40;99.90
10883;DHT22;5494;51.796;10.952;2022-09-25T08:01:47;20.40;99.90
10883;DHT22;5494;51.796;10.952;2022-09-25T08:04:20;20.40;99.90
10883;DHT22;5494;51.796;10.952;2022-09-25T08:06:48;20.00;99.90
10883;DHT22;5494;51.796;10.952;2022-09-25T08:09:17;19.70;99.90
10883;DHT22;5494;51.796;10.952;2022-09-25T08:11:45;19.70;99.90
10883;DHT22;5494;51.796;10.952;2022-09-25T08:14:14;20.10;99.90
10883;DHT22;5494;51.796;10.952;2022-09-25T08:16:44;20.70;99.90
10883;DHT22;5494;51.796;10.952;2022-09-25T08:19:13;20.50;99.90
10883;DHT22;5494;51.796;10.952;2022-09-25T08:21:44;20.70;99.90
10883;DHT22;5494;51.796;10.952;2022-09-25T08:24:12;21.00;99.90
10883;DHT22;5494;51.796;10.952;2022-09-25T08:26:41;20.90;99.90
10883;DHT22;5494;51.796;10.952;2022-09-25T08:29:09;21.50;99.90
10883;DHT22;5494;51.796;10.952;2022-09-25T08:31:38;21.90;99.90
10883;DHT22;5494;51.796;10.952;2022-09-25T08:34:08;22.10;99.90
10883;DHT22;5494;51.796;10.952;2022-09-25T08:36:57;21.90;99.90
10883;DHT22;5494;51.796;10.952;2022-09-25T08:39:28;20.70;99.90
10883;DHT22;5494;51.796;10.952;2022-09-25T08:41:57;20.60;99.90
10883;DHT22;5494;51.796;10.952;2022-09-25T08:44:30;20.80;99.90
10883;DHT22;5494;51.796;10.952;2022-09-25T08:47:07;20.50;99.90
10883;DHT22;5494;51.796;10.952;2022-09-25T08:50:04;20.10;99.90
10883;DHT22;5494;51.796;10.952;2022-09-25T08:52:36;19.50;99.90
10883;DHT22;5494;51.796;10.952;2022-09-25T08:55:12;19.20;99.90
10883;DHT22;5494;51.796;10.952;2022-09-25T08:57:44;18.90;99.90
10883;DHT22;5494;51.796;10.952;2022-09-25T09:00:17;18.90;99.90
10883;DHT22;5494;51.796;10.952;2022-09-25T09:02:52;19.10;99.90
10883;DHT22;5494;51.796;10.952;2022-09-25T09:05:26;19.10;99.90
10883;DHT22;5494;51.796;10.952;2022-09-25T09:08:00;19.10;99.90
10883;DHT22;5494;51.796;10.952;2022-09-25T09:10:35;19.00;99.90
10883;DHT22;5494;51.796;10.952;2022-09-25T09:13:14;18.80;99.90
10883;DHT22;5494;51.796;10.952;2022-09-25T09:15:54;18.60;99.90
10883;DHT22;5494;51.796;10.952;2022-09-25T09:18:31;18.60;99.90
10883;DHT22;5494;51.796;10.952;2022-09-25T09:21:08;18.10;99.90
10883;DHT22;5494;51.796;10.952;2022-09-25T09:23:46;17.70;99.90
10883;DHT22;5494;51.796;10.952;2022-09-25T09:26:21;17.80;99.90
10883;DHT22;5494;51.796;10.952;2022-09-25T09:29:05;17.70;99.90
10883;DHT22;5494;51.796;10.952;2022-09-25T09:31:49;17.80;99.90
10883;DHT22;5494;51.796;10.952;2022-09-25T09:34:39;17.60;99.90
10883;DHT22;5494;51.796;10.952;2022-09-25T09:37:53;17.70;99.90
10883;DHT22;5494;51.796;10.952;2022-09-25T09:40:50;17.70;99.90
10883;DHT22;5494;51.796;10.952;2022-09-25T09:43:40;17.50;99.90
10883;DHT22;5494;51.796;10.952;2022-09-25T09:46:31;17.30;99.90
10883;DHT22;5494;51.796;10.952;2022-09-25T09:49:12;17.20;99.90
10883;DHT22;5494;51.796;10.952;2022-09-25T09:51:49;17.20;99.90
10883;DHT22;5494;51.796;10.952;2022-09-25T09:54:28;17.20;99.90
10883;DHT22;5494;51.796;10.952;2022-09-25T09:57:15;17.40;99.90
10883;DHT22;5494;51.796;10.952;2022-09-25T09:59:51;17.30;99.90
10883;DHT22;5494;51.796;10.952;2022-09-25T10:02:39;17.30;99.90
10883;DHT22;5494;51.796;10.952;2022-09-25T10:05:15;17.30;99.90
10883;DHT22;5494;51.796;10.952;2022-09-25T10:07:48;17.30;99.90
10883;DHT22;5494;51.796;10.952;2022-09-25T10:10:19;17.40;99.90
10883;DHT22;5494;51.796;10.952;2022-09-25T10:12:52;17.60;99.90
10883;DHT22;5494;51.796;10.952;2022-09-25T10:15:40;17.60;99.90
10883;DHT22;5494;51.796;10.952;2022-09-25T10:18:14;17.30;99.90
10883;DHT22;5494;51.796;10.952;2022-09-25T10:20:47;17.00;99.90
10883;DHT22;5494;51.796;10.952;2022-09-25T10:23:36;16.80;99.90
10883;DHT22;5494;51.796;10.952;2022-09-25T10:26:26;16.90;99.90
10883;DHT22;5494;51.796;10.952;2022-09-25T10:28:56;17.00;99.90
10883;DHT22;5494;51.796;10.952;2022-09-25T10:31:28;17.00;99.90
10883;DHT22;5494;51.796;10.952;2022-09-25T10:34:02;17.10;99.90
10883;DHT22;5494;51.796;10.952;2022-09-25T10:36:38;16.90;99.90
10883;DHT22;5494;51.796;10.952;2022-09-25T10:39:25;16.70;99.90
10883;DHT22;5494;51.796;10.952;2022-09-25T10:42:36;16.70;99.90
10883;DHT22;5494;51.796;10.952;2022-09-25T10:45:28;16.70;99.90
10883;DHT22;5494;51.796;10.952;2022-09-25T10:47:58;16.80;99.90
10883;DHT22;5494;51.796;10.952;2022-09-25T10:50:44;16.60;99.90
10883;DHT22;5494;51.796;10.952;2022-09-25T10:53:31;16.80;99.90
10883;DHT22;5494;51.796;10.952;2022-09-25T10:56:03;16.90;99.90
10883;DHT22;5494;51.796;10.952;2022-09-25T10:58:40;17.10;99.90
10883;DHT22;5494;51.796;10.952;2022-09-25T11:01:10;17.30;99.90
10883;DHT22;5494;51.796;10.952;2022-09-25T11:03:48;17.50;99.90
10883;DHT22;5494;51.796;10.952;2022-09-25T11:06:25;17.70;99.90
10883;DHT22;5494;51.796;10.952;2022-09-25T11:09:05;17.80;99.90
10883;DHT22;5494;51.796;10.952;2022-09-25T11:11:41;17.90;99.90
10883;DHT22;5494;51.796;10.952;2022-09-25T11:14:20;17.80;99.90
10883;DHT22;5494;51.796;10.952;2022-09-25T11:16:54;17.70;99.90
10883;DHT22;5494;51.796;10.952;2022-09-25T11:19:26;17.60;99.90
10883;DHT22;5494;51.796;10.952;2022-09-25T11:22:01;17.50;99.90
10883;DHT22;5494;51.796;10.952;2022-09-25T11:24:43;17.30;99.90
10883;DHT22;5494;51.796;10.952;2022-09-25T11:27:21;17.10;99.90
10883;DHT22;5494;51.796;10.952;2022-09-25T11:30:03;17.00;99.90
10883;DHT22;5494;51.796;10.952;2022-09-25T11:32:39;17.10;99.90
10883;DHT22;5494;51.796;10.952;2022-09-25T11:35:26;17.20;99.90
10883;DHT22;5494;51.796;10.952;2022-09-25T11:38:13;17.30;99.90
10883;DHT22;5494;51.796;10.952;2022-09-25T11:41:16;17.30;99.90
10883;DHT22;5494;51.796;10.952;2022-09-25T11:44:09;17.40;99.90
10883;DHT22;5494;51.796;10.952;2022-09-25T11:46:54;17.50;99.90
10883;DHT22;5494;51.796;10.952;2022-09-25T11:49:30;17.50;99.90
10883;DHT22;5494;51.796;10.952;2022-09-25T11:52:25;17.70;99.90
10883;DHT22;5494;51.796;10.952;2022-09-25T11:58:23;17.70;99.90
10883;DHT22;5494;51.796;10.952;2022-09-25T12:01:11;17.60;99.90
10883;DHT22;5494;51.796;10.952;2022-09-25T12:03:59;17.60;99.90
10883;DHT22;5494;51.796;10.952;2022-09-25T12:06:52;17.60;99.90
10883;DHT22;5494;51.796;10.952;2022-09-25T12:09:49;17.70;99.90
10883;DHT22;5494;51.796;10.952;2022-09-25T12:12:35;17.60;99.90
10883;DHT22;5494;51.796;10.952;2022-09-25T12:15:18;17.60;99.90
10883;DHT22;5494;51.796;10.952;2022-09-25T12:17:57;17.50;99.90
10883;DHT22;5494;51.796;10.952;2022-09-25T12:20:39;17.30;99.90
10883;DHT22;5494;51.796;10.952;2022-09-25T12:23:20;17.30;99.90
10883;DHT22;5494;51.796;10.952;2022-09-25T12:26:12;17.20;99.90
10883;DHT22;5494;51.796;10.952;2022-09-25T12:29:05;17.20;99.90
10883;DHT22;5494;51.796;10.952;2022-09-25T12:31:50;17.20;99.90
10883;DHT22;5494;51.796;10.952;2022-09-25T12:34:39;17.20;99.90
10883;DHT22;5494;51.796;10.952;2022-09-25T12:37:29;17.30;99.90
10883;DHT22;5494;51.796;10.952;2022-09-25T12:40:17;17.30;99.90
10883;DHT22;5494;51.796;10.952;2022-09-25T12:42:55;17.30;99.90
10883;DHT22;5494;51.796;10.952;2022-09-25T12:45:32;17.20;99.90
10883;DHT22;5494;51.796;10.952;2022-09-25T12:48:11;17.20;99.90
10883;DHT22;5494;51.796;10.952;2022-09-25T12:50:50;17.40;99.90
10883;DHT22;5494;51.796;10.952;2022-09-25T12:53:35;17.60;99.90
10883;DHT22;5494;51.796;10.952;2022-09-25T12:56:10;17.80;99.90
10883;DHT22;5494;51.796;10.952;2022-09-25T12:59:04;17.80;99.90
10883;DHT22;5494;51.796;10.952;2022-09-25T13:01:45;17.70;99.90
10883;DHT22;5494;51.796;10.952;2022-09-25T13:04:36;17.60;99.90
10883;DHT22;5494;51.796;10.952;2022-09-25T13:07:20;17.40;99.90
10883;DHT22;5494;51.796;10.952;2022-09-25T13:09:53;17.40;99.90
10883;DHT22;5494;51.796;10.952;2022-09-25T13:12:30;17.40;99.90
10883;DHT22;5494;51.796;10.952;2022-09-25T13:15:04;17.40;99.90
10883;DHT22;5494;51.796;10.952;2022-09-25T13:17:37;17.40;99.90
10883;DHT22;5494;51.796;10.952;2022-09-25T13:20:45;17.10;99.90
10883;DHT22;5494;51.796;10.952;2022-09-25T13:23:22;16.90;99.90
10883;DHT22;5494;51.796;10.952;2022-09-25T13:25:58;16.80;99.90
10883;DHT22;5494;51.796;10.952;2022-09-25T13:28:31;16.80;99.90
10883;DHT22;5494;51.796;10.952;2022-09-25T13:31:05;16.90;99.90
10883;DHT22;5494;51.796;10.952;2022-09-25T13:33:41;16.90;99.90
10883;DHT22;5494;51.796;10.952;2022-09-25T13:36:30;17.00;99.90
10883;DHT22;5494;51.796;10.952;2022-09-25T13:39:12;16.70;99.90
10883;DHT22;5494;51.796;10.952;2022-09-25T13:42:07;16.50;99.90
10883;DHT22;5494;51.796;10.952;2022-09-25T13:45:03;16.40;99.90
10883;DHT22;5494;51.796;10.952;2022-09-25T13:47:58;16.50;99.90
10883;DHT22;5494;51.796;10.952;2022-09-25T13:50:35;16.60;99.90
10883;DHT22;5494;51.796;10.952;2022-09-25T13:53:21;16.60;99.90
10883;DHT22;5494;51.796;10.952;2022-09-25T13:56:21;16.50;99.90
10883;DHT22;5494;51.796;10.952;2022-09-25T14:05:18;16.50;99.90
10883;DHT22;5494;51.796;10.952;2022-09-25T14:07:50;16.50;99.90
10883;DHT22;5494;51.796;10.952;2022-09-25T14:10:28;16.50;99.90
10883;DHT22;5494;51.796;10.952;2022-09-25T14:12:57;16.50;99.90
10883;DHT22;5494;51.796;10.952;2022-09-25T14:15:35;16.60;99.90
10883;DHT22;5494;51.796;10.952;2022-09-25T14:18:14;16.70;99.90
10883;DHT22;5494;51.796;10.952;2022-09-25T14:20:46;16.80;99.90
10883;DHT22;5494;51.796;10.952;2022-09-25T14:23:22;16.80;99.90
10883;DHT22;5494;51.796;10.952;2022-09-25T14:25:57;16.80;99.90
10883;DHT22;5494;51.796;10.952;2022-09-25T14:28:29;16.80;99.90
10883;DHT22;5494;51.796;10.952;2022-09-25T14:31:14;16.70;99.90
10883;DHT22;5494;51.796;10.952;2022-09-25T14:34:15;16.70;99.90
10883;DHT22;5494;51.796;10.952;2022-09-25T14:37:09;16.40;99.90
10883;DHT22;5494;51.796;10.952;2022-09-25T14:40:02;16.40;99.90
10883;DHT22;5494;51.796;10.952;2022-09-25T14:43:03;16.30;99.90
10883;DHT22;5494;51.796;10.952;2022-09-25T14:45:56;16.20;99.90
10883;DHT22;5494;51.796;10.952;2022-09-25T14:48:31;16.10;99.90
10883;DHT22;5494;51.796;10.952;2022-09-25T14:51:09;16.20;99.90
10883;DHT22;5494;51.796;10.952;2022-09-25T14:53:43;16.10;99.90
10883;DHT22;5494;51.796;10.952;2022-09-25T14:56:16;16.00;99.90
10883;DHT22;5494;51.796;10.952;2022-09-25T14:58:48;16.00;99.90
10883;DHT22;5494;51.796;10.952;2022-09-25T15:01:24;16.00;99.90
10883;DHT22;5494;51.796;10.952;2022-09-25T15:03:59;16.00;99.90
10883;DHT22;5494;51.796;10.952;2022-09-25T15:06:32;16.00;99.90
10883;DHT22;5494;51.796;10.952;2022-09-25T15:09:02;15.90;99.90
10883;DHT22;5494;51.796;10.952;2022-09-25T15:11:54;15.90;99.90
10883;DHT22;5494;51.796;10.952;2022-09-25T15:14:22;16.00;99.90
10883;DHT22;5494;51.796;10.952;2022-09-25T15:16:51;16.00;99.90
10883;DHT22;5494;51.796;10.952;2022-09-25T15:19:41;16.00;99.90
10883;DHT22;5494;51.796;10.952;2022-09-25T15:22:17;15.90;99.90
10883;DHT22;5494;51.796;10.952;2022-09-25T15:24:51;15.90;99.90
10883;DHT22;5494;51.796;10.952;2022-09-25T15:27:24;15.80;99.90
10883;DHT22;5494;51.796;10.952;2022-09-25T15:29:55;15.70;99.90
10883;DHT22;5494;51.796;10.952;2022-09-25T15:32:28;15.60;99.90
10883;DHT22;5494;51.796;10.952;2022-09-25T15:35:13;15.50;99.90
10883;DHT22;5494;51.796;10.952;2022-09-25T15:37:47;15.40;99.90
10883;DHT22;5494;51.796;10.952;2022-09-25T15:40:19;15.40;99.90
10883;DHT22;5494;51.796;10.952;2022-09-25T15:42:51;15.40;99.90
10883;DHT22;5494;51.796;10.952;2022-09-25T15:45:41;15.40;99.90
10883;DHT22;5494;51.796;10.952;2022-09-25T15:48:18;15.40;99.90
10883;DHT22;5494;51.796;10.952;2022-09-25T15:50:51;15.40;99.90
10883;DHT22;5494;51.796;10.952;2022-09-25T15:53:25;14.70;99.90
10883;DHT22;5494;51.796;10.952;2022-09-25T15:56:13;15.30;99.90
10883;DHT22;5494;51.796;10.952;2022-09-25T15:58:46;15.30;99.90
10883;DHT22;5494;51.796;10.952;2022-09-25T16:01:20;15.30;99.90
10883;DHT22;5494;51.796;10.952;2022-09-25T16:04:14;15.30;99.90
10883;DHT22;5494;51.796;10.952;2022-09-25T16:07:19;15.30;99.90
10883;DHT22;5494;51.796;10.952;2022-09-25T16:09:52;15.20;99.90
10883;DHT22;5494;51.796;10.952;2022-09-25T16:12:27;15.20;99.90
10883;DHT22;5494;51.796;10.952;2022-09-25T16:14:57;15.20;99.90
10883;DHT22;5494;51.796;10.952;2022-09-25T16:17:31;15.20;99.90
10883;DHT22;5494;51.796;10.952;2022-09-25T16:20:27;15.10;99.90
10883;DHT22;5494;51.796;10.952;2022-09-25T16:22:59;15.10;99.90
10883;DHT22;5494;51.796;10.952;2022-09-25T16:25:34;15.00;99.90
10883;DHT22;5494;51.796;10.952;2022-09-25T16:28:06;15.00;99.90
10883;DHT22;5494;51.796;10.952;2022-09-25T16:30:37;15.00;99.90
10883;DHT22;5494;51.796;10.952;2022-09-25T16:33:13;15.00;99.90
10883;DHT22;5494;51.796;10.952;2022-09-25T16:35:49;15.00;99.90
10883;DHT22;5494;51.796;10.952;2022-09-25T16:38:38;15.00;99.90